Time;durP1;ratioP1;P1;durP2;ratioP2;P2;SDS_P1;SDS_P2;PMS_P1;PMS_P2;Temp;Humidity;BMP_temperature;BMP_pressure;BME280_temperature;BME280_humidity;BME280_pressure;Samples;Min_cycle;Max_cycle;Signal;HPM_P1;HPM_P2
2023/08/18 00:02:09;;;;;;;3.90;1.60;;;;;;;19.22;100.00;96415.78;5059716;28;20213;-64
2023/08/18 00:04:35;;;;;;;5.35;2.10;;;;;;;19.14;100.00;96410.75;5062322;28;20209;-64
2023/08/18 00:07:02;;;;;;;4.70;2.03;;;;;;;19.27;100.00;96403.38;5054571;28;20240;-65
2023/08/18 00:09:30;;;;;;;2.92;1.80;;;;;;;19.17;100.00;96402.25;5062449;28;20411;-66
2023/08/18 00:11:56;;;;;;;2.03;1.38;;;;;;;19.19;100.00;96401.00;5054196;28;20220;-65
2023/08/18 00:14:23;;;;;;;4.38;1.90;;;;;;;19.05;100.00;96402.22;5059144;28;20205;-66
2023/08/18 00:16:49;;;;;;;5.78;1.92;;;;;;;18.81;100.00;96406.81;5066661;28;20231;-64
2023/08/18 00:19:16;;;;;;;3.42;1.58;;;;;;;18.72;100.00;96400.94;5058153;28;20217;-63
2023/08/18 00:21:42;;;;;;;3.17;1.80;;;;;;;18.84;100.00;96403.69;5066997;28;20201;-64
2023/08/18 00:24:09;;;;;;;5.15;2.22;;;;;;;18.75;100.00;96408.53;5067103;28;20196;-65
2023/08/18 00:26:36;;;;;;;3.40;1.80;;;;;;;18.87;100.00;96405.94;5064198;28;20225;-64
2023/08/18 00:29:03;;;;;;;2.25;1.70;;;;;;;18.81;100.00;96402.28;5068673;28;20196;-65
2023/08/18 00:31:30;;;;;;;8.52;2.53;;;;;;;18.74;100.00;96412.22;5058933;28;20205;-64
2023/08/18 00:33:57;;;;;;;3.97;1.70;;;;;;;18.67;100.00;96406.16;5058400;28;20208;-67
2023/08/18 00:36:25;;;;;;;4.53;1.80;;;;;;;18.70;100.00;96405.72;5065832;28;20221;-64
2023/08/18 00:38:51;;;;;;;4.40;1.90;;;;;;;18.56;100.00;96398.09;5065634;28;20224;-65
2023/08/18 00:41:18;;;;;;;3.58;1.63;;;;;;;18.78;100.00;96397.41;5050942;28;20204;-64
2023/08/18 00:43:46;;;;;;;2.67;1.83;;;;;;;18.94;100.00;96396.81;5054070;28;20201;-65
2023/08/18 00:46:13;;;;;;;2.60;1.50;;;;;;;18.82;100.00;96389.78;5060470;28;20229;-64
2023/08/18 00:48:40;;;;;;;2.85;1.50;;;;;;;18.80;100.00;96394.50;5059013;28;20201;-65
2023/08/18 00:51:07;;;;;;;4.38;1.40;;;;;;;18.71;100.00;96395.84;5065381;28;20213;-64
2023/08/18 00:53:34;;;;;;;3.28;1.98;;;;;;;18.66;100.00;96393.84;5062356;28;20226;-63
2023/08/18 00:56:01;;;;;;;2.35;1.45;;;;;;;18.66;100.00;96390.34;5055023;28;20221;-64
2023/08/18 00:58:29;;;;;;;2.83;1.60;;;;;;;18.61;100.00;96385.69;5061938;28;20305;-64
2023/08/18 01:00:57;;;;;;;4.07;1.58;;;;;;;18.65;100.00;96384.22;5060764;28;20211;-65
2023/08/18 01:03:23;;;;;;;3.05;1.70;;;;;;;18.42;100.00;96381.38;5056660;28;20569;-65
2023/08/18 01:05:50;;;;;;;3.72;1.77;;;;;;;18.45;100.00;96378.25;5061316;28;20229;-64
2023/08/18 01:08:17;;;;;;;2.10;1.50;;;;;;;18.76;100.00;96372.78;5058579;28;20200;-65
2023/08/18 01:10:52;;;;;;;3.30;1.98;;;;;;;18.94;100.00;96367.44;5058208;28;20231;-64
2023/08/18 01:13:28;;;;;;;1.88;1.38;;;;;;;18.80;100.00;96367.81;5057989;28;20223;-65
2023/08/18 01:16:00;;;;;;;1.88;1.40;;;;;;;18.85;100.00;96360.78;5057751;28;20221;-65
2023/08/18 01:18:28;;;;;;;4.28;1.65;;;;;;;18.80;100.00;96368.63;5054703;28;20733;-65
2023/08/18 01:20:59;;;;;;;2.45;1.55;;;;;;;18.67;100.00;96366.13;5060806;28;20211;-64
2023/08/18 01:23:37;;;;;;;2.42;1.70;;;;;;;18.95;100.00;96366.38;5058118;28;20202;-64
2023/08/18 01:26:04;;;;;;;3.70;2.30;;;;;;;18.38;100.00;96369.53;5062013;28;20224;-65
2023/08/18 01:28:31;;;;;;;3.17;1.83;;;;;;;18.40;100.00;96367.44;5057833;28;20201;-63
2023/08/18 01:30:58;;;;;;;2.80;1.85;;;;;;;18.69;100.00;96348.00;5057018;28;20205;-65
2023/08/18 01:33:32;;;;;;;3.22;2.10;;;;;;;18.83;100.00;96349.47;5058752;28;20212;-64
2023/08/18 01:36:04;;;;;;;2.70;1.60;;;;;;;18.73;100.00;96353.72;5055389;28;20707;-65
2023/08/18 01:38:31;;;;;;;3.45;2.00;;;;;;;18.68;100.00;96359.72;5060953;28;20228;-64
2023/08/18 01:41:00;;;;;;;3.58;2.03;;;;;;;18.64;100.00;96347.88;5066516;28;21020;-65
2023/08/18 01:43:27;;;;;;;6.07;1.90;;;;;;;18.42;100.00;96354.69;5064349;28;20212;-65
2023/08/18 01:45:55;;;;;;;3.75;1.95;;;;;;;18.39;100.00;96348.97;5057365;28;20229;-65
2023/08/18 01:48:21;;;;;;;2.75;1.67;;;;;;;18.36;100.00;96342.22;5055887;28;20193;-65
2023/08/18 01:50:48;;;;;;;3.15;2.05;;;;;;;18.35;100.00;96340.63;5060962;28;20231;-65
2023/08/18 01:53:14;;;;;;;2.92;1.95;;;;;;;18.42;100.00;96332.53;5058017;28;20211;-66
2023/08/18 01:55:42;;;;;;;2.25;1.50;;;;;;;18.29;100.00;96339.88;5057109;28;20197;-65
2023/08/18 01:58:10;;;;;;;3.00;1.73;;;;;;;18.53;100.00;96329.94;5058005;28;20768;-65
2023/08/18 02:00:36;;;;;;;3.35;1.67;;;;;;;18.40;100.00;96331.94;5060414;28;20201;-67
2023/08/18 02:03:03;;;;;;;3.15;1.83;;;;;;;18.42;100.00;96330.69;5059771;28;20207;-65
2023/08/18 02:05:29;;;;;;;3.55;1.73;;;;;;;18.18;100.00;96336.09;5057163;28;20201;-66
2023/08/18 02:07:56;;;;;;;3.13;1.27;;;;;;;18.02;100.00;96335.81;5056438;28;20706;-65
2023/08/18 02:10:23;;;;;;;2.67;1.60;;;;;;;17.98;100.00;96329.28;5057182;28;20280;-68
2023/08/18 02:12:49;;;;;;;3.30;1.52;;;;;;;17.87;100.00;96322.84;5056586;28;20554;-67
2023/08/18 02:15:17;;;;;;;2.55;1.35;;;;;;;18.14;100.00;96321.53;5060708;28;20200;-66
2023/08/18 02:17:43;;;;;;;6.25;2.03;;;;;;;17.89;100.00;96319.94;5060336;28;20224;-66
2023/08/18 02:20:11;;;;;;;3.03;1.67;;;;;;;18.19;100.00;96316.38;5058139;28;20212;-67
2023/08/18 02:22:37;;;;;;;2.58;1.90;;;;;;;18.13;100.00;96324.44;5056289;28;20216;-68
2023/08/18 02:25:05;;;;;;;3.17;1.77;;;;;;;18.19;100.00;96316.38;5057038;28;20209;-66
2023/08/18 02:27:31;;;;;;;3.75;1.65;;;;;;;18.35;100.00;96313.94;5059983;28;20717;-67
2023/08/18 02:29:58;;;;;;;2.63;1.55;;;;;;;18.30;100.00;96320.16;5059536;28;20193;-67
2023/08/18 02:32:26;;;;;;;2.72;1.42;;;;;;;18.47;100.00;96320.16;5060385;28;20205;-66
2023/08/18 02:34:53;;;;;;;6.07;2.00;;;;;;;18.27;100.00;96323.28;5059444;28;20200;-67
2023/08/18 02:37:19;;;;;;;3.67;1.80;;;;;;;18.17;100.00;96322.94;5059340;28;20224;-68
2023/08/18 02:39:46;;;;;;;4.60;1.55;;;;;;;18.18;100.00;96309.41;5059388;28;20724;-67
2023/08/18 02:42:12;;;;;;;2.30;1.40;;;;;;;18.17;100.00;96317.59;5063515;28;20202;-67
2023/08/18 02:44:39;;;;;;;6.28;2.25;;;;;;;18.16;100.00;96315.97;5060794;28;20200;-68
2023/08/18 02:47:05;;;;;;;7.00;2.00;;;;;;;18.18;100.00;96313.94;5064873;28;20221;-68
2023/08/18 02:49:33;;;;;;;3.20;1.58;;;;;;;18.32;100.00;96302.91;5065734;28;20201;-67
2023/08/18 02:52:00;;;;;;;2.83;1.45;;;;;;;18.15;100.00;96317.00;5064589;28;20282;-66
2023/08/18 02:54:27;;;;;;;2.15;1.58;;;;;;;18.01;100.00;96313.69;5058907;28;20288;-66
2023/08/18 02:56:55;;;;;;;3.08;1.45;;;;;;;18.17;100.00;96309.63;5061873;28;20216;-67
2023/08/18 02:59:21;;;;;;;3.65;1.98;;;;;;;18.02;100.00;96306.47;5064963;28;20228;-66
2023/08/18 03:01:48;;;;;;;6.57;1.73;;;;;;;17.95;100.00;96303.88;5065447;28;20673;-67
2023/08/18 03:04:15;;;;;;;6.15;2.00;;;;;;;17.87;100.00;96296.19;5063926;28;20208;-67
2023/08/18 03:06:42;;;;;;;4.40;2.40;;;;;;;18.01;100.00;96299.50;5080457;22;20289;-72
2023/08/18 03:09:09;;;;;;;2.92;1.88;;;;;;;17.91;100.00;96302.69;5066039;28;20204;-72
2023/08/18 03:11:35;;;;;;;2.95;1.90;;;;;;;17.94;100.00;96296.91;5067283;28;20665;-72
2023/08/18 03:14:02;;;;;;;2.17;1.55;;;;;;;17.87;100.00;96296.19;5066334;28;20200;-72
2023/08/18 03:16:29;;;;;;;5.18;2.50;;;;;;;18.06;100.00;96297.00;5063759;28;20231;-72
2023/08/18 03:18:55;;;;;;;3.35;1.92;;;;;;;18.07;100.00;96294.09;5048720;28;20731;-71
2023/08/18 03:21:22;;;;;;;5.15;1.60;;;;;;;18.10;100.00;96299.00;5049441;28;20211;-71
2023/08/18 03:23:49;;;;;;;4.13;1.90;;;;;;;18.19;100.00;96289.72;5049132;28;20211;-71
2023/08/18 03:26:16;;;;;;;4.63;1.95;;;;;;;17.88;100.00;96297.81;5054934;28;20592;-72
2023/08/18 03:28:42;;;;;;;2.45;1.40;;;;;;;17.95;100.00;96297.75;5048975;28;20201;-72
2023/08/18 03:31:09;;;;;;;6.65;2.15;;;;;;;17.98;100.00;96302.63;5055680;28;20204;-72
2023/08/18 03:33:36;;;;;;;2.97;1.73;;;;;;;17.98;100.00;96298.09;5048699;28;20207;-72
2023/08/18 03:36:03;;;;;;;3.67;1.40;;;;;;;17.94;100.00;96304.91;5049016;28;20201;-71
2023/08/18 03:38:30;;;;;;;3.30;1.50;;;;;;;17.86;100.00;96307.06;5048305;28;20632;-72
2023/08/18 03:41:02;;;;;;;2.13;1.65;;;;;;;18.21;100.00;96308.16;5051092;28;20584;-71
2023/08/18 03:43:29;;;;;;;6.22;1.55;;;;;;;17.86;100.00;96312.41;5057232;28;20216;-71
2023/08/18 03:45:59;;;;;;;2.53;1.80;;;;;;;18.05;100.00;96311.34;5050803;28;20204;-71
2023/08/18 03:48:26;;;;;;;5.07;1.73;;;;;;;17.77;100.00;96316.38;5051828;28;20240;-72
2023/08/18 03:50:53;;;;;;;2.15;1.17;;;;;;;17.74;100.00;96317.63;5050920;28;20209;-71
2023/08/18 03:53:22;;;;;;;6.60;1.35;;;;;;;17.87;100.00;96308.66;5051223;28;20302;-71
2023/08/18 03:55:50;;;;;;;10.10;3.25;;;;;;;18.00;100.00;96308.56;5053030;28;20201;-72
2023/08/18 03:58:18;;;;;;;4.45;2.10;;;;;;;17.94;100.00;96302.25;5056510;28;20220;-72
2023/08/18 04:00:45;;;;;;;4.00;1.70;;;;;;;17.79;100.00;96303.63;5054247;28;20209;-72
2023/08/18 04:03:11;;;;;;;2.28;1.40;;;;;;;17.74;100.00;96303.47;5056984;28;20204;-71
2023/08/18 04:05:44;;;;;;;2.00;1.30;;;;;;;17.78;100.00;96302.81;5064615;28;20197;-71
2023/08/18 04:08:11;;;;;;;3.95;2.05;;;;;;;17.67;100.00;96310.72;5054636;28;20229;-72
2023/08/18 04:10:37;;;;;;;4.57;1.90;;;;;;;17.61;100.00;96308.91;5064224;28;20193;-72
2023/08/18 04:13:04;;;;;;;3.22;1.40;;;;;;;17.55;100.00;96309.78;5057715;28;20197;-72
2023/08/18 04:15:32;;;;;;;5.13;1.80;;;;;;;17.84;100.00;96304.59;5054146;28;20206;-71
2023/08/18 04:17:58;;;;;;;3.75;1.73;;;;;;;17.69;100.00;96313.97;5055580;28;20223;-71
2023/08/18 04:20:25;;;;;;;4.70;1.60;;;;;;;17.51;100.00;96313.13;5054936;28;20228;-71
2023/08/18 04:22:51;;;;;;;4.35;1.70;;;;;;;17.58;100.00;96317.34;5054828;28;20197;-71
2023/08/18 04:25:18;;;;;;;1.67;1.00;;;;;;;17.61;100.00;96322.25;5056333;28;20200;-72
2023/08/18 04:27:44;;;;;;;1.90;1.15;;;;;;;17.66;100.00;96317.06;5054234;28;20625;-72
2023/08/18 04:30:12;;;;;;;2.58;1.77;;;;;;;17.68;100.00;96322.19;5056022;28;20206;-71
2023/08/18 04:32:40;;;;;;;2.45;1.75;;;;;;;17.71;100.00;96324.44;5054162;28;20203;-71
2023/08/18 04:35:07;;;;;;;2.65;1.50;;;;;;;17.71;100.00;96323.38;5055932;28;20201;-72
2023/08/18 04:37:34;;;;;;;7.15;1.58;;;;;;;17.57;100.00;96326.38;5053973;28;20221;-71
2023/08/18 04:40:00;;;;;;;1.38;1.20;;;;;;;17.57;100.00;96330.91;5061129;28;20228;-72
2023/08/18 04:42:27;;;;;;;2.30;1.30;;;;;;;17.58;100.00;96332.50;5054666;28;20200;-71
2023/08/18 04:44:53;;;;;;;2.72;1.67;;;;;;;17.62;100.00;96341.72;5058647;28;20201;-72
2023/08/18 04:47:20;;;;;;;4.78;1.90;;;;;;;17.47;100.00;96343.91;5054506;28;20221;-72
2023/08/18 04:49:47;;;;;;;3.00;2.05;;;;;;;17.69;100.00;96343.28;5060296;28;20703;-71
2023/08/18 04:52:15;;;;;;;2.42;1.50;;;;;;;17.66;100.00;96341.06;5056403;28;20194;-71
2023/08/18 04:54:41;;;;;;;2.17;1.52;;;;;;;17.76;100.00;96342.19;5053539;28;20216;-71
2023/08/18 04:57:08;;;;;;;4.43;2.13;;;;;;;17.94;100.00;96344.91;5056107;28;20717;-72
2023/08/18 04:59:34;;;;;;;2.92;1.48;;;;;;;18.03;100.00;96337.44;5054046;28;20235;-71
2023/08/18 05:02:01;;;;;;;3.03;1.80;;;;;;;18.11;100.00;96345.16;5055565;28;20197;-72
2023/08/18 05:04:27;;;;;;;3.92;2.03;;;;;;;18.12;100.00;96347.59;5054752;28;20213;-71
2023/08/18 05:06:55;;;;;;;3.67;1.77;;;;;;;18.23;100.00;96354.09;5053966;28;20229;-71
2023/08/18 05:09:21;;;;;;;3.95;1.80;;;;;;;18.14;100.00;96344.72;5054425;28;20200;-72
2023/08/18 05:11:48;;;;;;;3.15;2.03;;;;;;;18.08;100.00;96345.59;5054285;28;20211;-72
2023/08/18 05:14:14;;;;;;;2.13;1.50;;;;;;;18.16;100.00;96346.13;5061578;28;20204;-72
2023/08/18 05:16:41;;;;;;;5.68;2.30;;;;;;;18.08;100.00;96342.94;5058453;28;20217;-73
2023/08/18 05:19:08;;;;;;;4.53;2.38;;;;;;;18.14;100.00;96345.53;5061415;28;20298;-73
2023/08/18 05:21:34;;;;;;;4.88;2.28;;;;;;;18.29;100.00;96342.53;5055146;28;20207;-72
2023/08/18 05:24:02;;;;;;;3.67;1.98;;;;;;;18.47;100.00;96340.72;5054889;28;20207;-72
2023/08/18 05:26:28;;;;;;;5.95;3.25;;;;;;;18.10;100.00;96341.69;5054974;28;20832;-72
2023/08/18 05:28:55;;;;;;;7.13;1.98;;;;;;;18.44;100.00;96349.97;5052571;28;20252;-72
2023/08/18 05:31:21;;;;;;;4.40;2.08;;;;;;;18.64;100.00;96349.72;5056738;28;20199;-72
2023/08/18 05:33:48;;;;;;;3.47;2.50;;;;;;;18.71;100.00;96350.47;5053769;28;20208;-72
2023/08/18 05:36:14;;;;;;;5.35;2.83;;;;;;;18.81;100.00;96348.06;5056974;28;20201;-72
2023/08/18 05:38:41;;;;;;;3.40;2.08;;;;;;;18.87;100.00;96353.34;5053320;28;20552;-72
2023/08/18 05:41:14;;;;;;;4.53;2.55;;;;;;;19.00;100.00;96353.16;5056329;28;20201;-72
2023/08/18 05:43:41;;;;;;;8.68;2.58;;;;;;;18.88;100.00;96365.66;5053753;28;20328;-73
2023/08/18 05:46:08;;;;;;;4.85;2.50;;;;;;;19.11;100.00;96365.78;5055801;28;20197;-73
2023/08/18 05:48:35;;;;;;;4.88;2.83;;;;;;;19.21;100.00;96369.53;5053358;28;20201;-73
2023/08/18 05:51:02;;;;;;;4.18;2.45;;;;;;;19.18;100.00;96366.50;5055122;28;20202;-74
2023/08/18 05:53:30;;;;;;;4.78;2.53;;;;;;;19.16;100.00;96361.38;5054495;28;20700;-71
2023/08/18 05:55:56;;;;;;;6.90;3.20;;;;;;;19.11;100.00;96363.91;5054307;28;20591;-73
2023/08/18 05:58:24;;;;;;;4.60;2.38;;;;;;;19.36;100.00;96361.94;5055782;28;20220;-73
2023/08/18 06:00:50;;;;;;;5.45;2.75;;;;;;;19.37;100.00;96360.88;5053861;28;20228;-73
2023/08/18 06:03:19;;;;;;;8.27;2.80;;;;;;;19.60;100.00;96367.09;5056150;28;20196;-74
2023/08/18 06:05:48;;;;;;;6.43;3.33;;;;;;;19.83;100.00;96359.13;5053752;28;20652;-72
2023/08/18 06:08:14;;;;;;;12.35;4.05;;;;;;;19.62;100.00;96364.19;5058206;28;20601;-73
2023/08/18 06:10:41;;;;;;;5.30;2.58;;;;;;;19.84;100.00;96355.38;5060488;28;20571;-73
2023/08/18 06:13:08;;;;;;;5.97;2.92;;;;;;;20.07;100.00;96366.13;5056762;28;20204;-74
2023/08/18 06:15:37;;;;;;;4.55;2.63;;;;;;;20.09;100.00;96360.56;5061616;28;20674;-73
2023/08/18 06:18:04;;;;;;;5.55;3.05;;;;;;;19.97;100.00;96367.75;5059105;28;20740;-74
2023/08/18 06:20:31;;;;;;;6.82;3.35;;;;;;;19.92;100.00;96368.47;5054943;28;20233;-74
2023/08/18 06:22:57;;;;;;;5.45;2.78;;;;;;;19.88;100.00;96369.97;5054365;28;20208;-74
2023/08/18 06:25:24;;;;;;;6.15;3.20;;;;;;;19.86;100.00;96371.22;5057511;28;20216;-74
2023/08/18 06:27:50;;;;;;;7.20;2.95;;;;;;;19.65;100.00;96369.91;5053726;28;20251;-74
2023/08/18 06:30:17;;;;;;;9.27;3.92;;;;;;;19.81;100.00;96369.22;5056174;28;20193;-73
2023/08/18 06:32:46;;;;;;;8.18;3.22;;;;;;;20.21;100.00;96364.84;5053904;28;20220;-71
2023/08/18 06:35:13;;;;;;;7.18;3.08;;;;;;;20.01;100.00;96374.28;5055796;28;20556;-70
2023/08/18 06:37:39;;;;;;;5.40;2.95;;;;;;;20.08;100.00;96375.78;5054044;28;20213;-73
2023/08/18 06:40:07;;;;;;;8.02;3.45;;;;;;;20.26;100.00;96375.69;5055501;28;20594;-71
2023/08/18 06:42:33;;;;;;;5.95;3.05;;;;;;;20.13;100.00;96383.94;5055133;28;20201;-71
2023/08/18 06:45:00;;;;;;;5.57;3.05;;;;;;;20.10;100.00;96380.91;5054481;28;20201;-71
2023/08/18 06:47:26;;;;;;;5.57;2.95;;;;;;;20.09;100.00;96387.34;5055715;28;20228;-73
2023/08/18 06:49:54;;;;;;;5.88;2.90;;;;;;;20.31;100.00;96370.44;5057801;28;20571;-73
2023/08/18 06:52:21;;;;;;;4.97;2.58;;;;;;;20.24;100.00;96372.44;5054110;28;20203;-73
2023/08/18 06:54:47;;;;;;;6.45;3.60;;;;;;;20.27;100.00;96380.81;5058431;28;20192;-74
2023/08/18 06:57:14;;;;;;;6.38;3.03;;;;;;;20.32;100.00;96380.13;5056704;28;20225;-74
2023/08/18 06:59:40;;;;;;;5.60;3.13;;;;;;;20.50;100.00;96382.66;5058359;28;20709;-74
2023/08/18 07:02:07;;;;;;;3.85;2.45;;;;;;;20.43;100.00;96377.44;5058552;28;20193;-72
2023/08/18 07:04:33;;;;;;;8.18;3.08;;;;;;;20.60;100.00;96380.22;5055638;28;20201;-70
2023/08/18 07:07:01;;;;;;;5.82;2.55;;;;;;;20.85;100.00;96374.34;5050741;28;20392;-70
2023/08/18 07:09:28;;;;;;;4.57;2.33;;;;;;;20.68;100.00;96382.53;5056431;28;20196;-70
2023/08/18 07:11:54;;;;;;;2.83;1.90;;;;;;;20.62;100.00;96372.75;5053720;28;20702;-70
2023/08/18 07:14:21;;;;;;;4.25;2.05;;;;;;;20.70;100.00;96380.44;5057154;28;20205;-70
2023/08/18 07:16:47;;;;;;;3.53;2.22;;;;;;;20.83;100.00;96380.19;5057438;28;20232;-70
2023/08/18 07:19:14;;;;;;;5.38;1.92;;;;;;;20.87;100.00;96385.66;5057057;28;20232;-71
2023/08/18 07:21:40;;;;;;;4.35;2.03;;;;;;;21.00;100.00;96390.75;5059220;28;20299;-69
2023/08/18 07:24:08;;;;;;;3.70;2.08;;;;;;;21.34;100.00;96389.81;5057092;28;20692;-69
2023/08/18 07:26:35;;;;;;;4.90;2.30;;;;;;;21.44;100.00;96390.00;5056005;28;20706;-69
2023/08/18 07:29:02;;;;;;;4.00;1.50;;;;;;;21.63;100.00;96391.47;5057644;28;20205;-69
2023/08/18 07:31:29;;;;;;;2.83;1.83;;;;;;;21.69;100.00;96399.34;5060616;28;20603;-69
2023/08/18 07:33:55;;;;;;;3.63;2.03;;;;;;;21.70;100.00;96403.66;5064446;28;20207;-69
2023/08/18 07:36:22;;;;;;;2.70;1.73;;;;;;;21.76;100.00;96405.38;5058851;28;20207;-69
2023/08/18 07:38:48;;;;;;;3.50;1.80;;;;;;;21.92;100.00;96409.13;5065009;28;20200;-70
2023/08/18 07:41:16;;;;;;;2.85;1.85;;;;;;;22.16;100.00;96414.09;5059053;28;20347;-69
2023/08/18 07:43:42;;;;;;;4.75;2.42;;;;;;;22.15;100.00;96409.81;5063078;28;20224;-70
2023/08/18 07:46:10;;;;;;;3.78;1.58;;;;;;;22.26;100.00;96407.06;5060961;28;20205;-69
2023/08/18 07:48:37;;;;;;;5.13;1.88;;;;;;;22.45;100.00;96415.66;5064388;28;20205;-71
2023/08/18 07:51:03;;;;;;;3.33;1.50;;;;;;;22.63;100.00;96413.50;5059925;28;20677;-71
2023/08/18 07:53:30;;;;;;;5.00;2.25;;;;;;;22.70;100.00;96406.09;5060912;28;20200;-71
2023/08/18 07:55:56;;;;;;;3.15;1.85;;;;;;;22.53;100.00;96405.31;5057103;28;20693;-69
2023/08/18 07:58:24;;;;;;;3.05;1.90;;;;;;;22.75;100.00;96406.16;5059945;28;20733;-69
2023/08/18 08:00:51;;;;;;;2.95;1.88;;;;;;;22.63;100.00;96408.13;5058314;28;20231;-69
2023/08/18 08:03:18;;;;;;;6.07;2.08;;;;;;;22.67;100.00;96403.91;5060472;28;20590;-70
2023/08/18 08:05:44;;;;;;;2.42;1.50;;;;;;;22.50;100.00;96408.47;5057779;28;20689;-69
2023/08/18 08:08:11;;;;;;;6.40;2.58;;;;;;;22.69;100.00;96404.47;5064076;28;20236;-70
2023/08/18 08:10:38;;;;;;;5.18;1.60;;;;;;;22.98;100.00;96400.56;5059168;28;20271;-70
2023/08/18 08:13:05;;;;;;;3.95;1.50;;;;;;;22.90;100.00;96407.19;5063553;28;20196;-69
2023/08/18 08:15:33;;;;;;;6.30;2.15;;;;;;;23.12;100.00;96397.28;5058024;28;20200;-70
2023/08/18 08:17:59;;;;;;;3.40;1.50;;;;;;;23.08;100.00;96395.34;5060883;28;20225;-70
2023/08/18 08:20:26;;;;;;;3.33;1.83;;;;;;;23.22;100.00;96393.88;5057414;28;20240;-69
2023/08/18 08:22:52;;;;;;;2.50;1.55;;;;;;;23.31;100.00;96399.38;5058038;28;20197;-69
2023/08/18 08:25:19;;;;;;;1.77;1.35;;;;;;;23.33;100.00;96394.59;5058277;28;20690;-70
2023/08/18 08:27:46;;;;;;;1.67;1.48;;;;;;;23.50;100.00;96398.00;5058193;28;20213;-71
2023/08/18 08:30:14;;;;;;;2.53;1.45;;;;;;;23.60;100.00;96399.97;5060516;28;20193;-70
2023/08/18 08:32:42;;;;;;;3.30;1.90;;;;;;;23.66;100.00;96394.41;5058514;28;20201;-70
2023/08/18 08:35:09;;;;;;;2.95;1.98;;;;;;;23.76;100.00;96399.91;5059302;28;20205;-70
2023/08/18 08:37:35;;;;;;;6.95;2.85;;;;;;;23.79;100.00;96394.03;5063799;28;20235;-70
2023/08/18 08:40:02;;;;;;;4.00;1.77;;;;;;;23.93;100.00;96396.03;5057637;28;20221;-70
2023/08/18 08:42:29;;;;;;;3.10;2.15;;;;;;;23.95;100.00;96403.84;5064439;28;20992;-70
2023/08/18 08:44:55;;;;;;;2.95;2.22;;;;;;;23.81;100.00;96397.25;5057623;28;20693;-70
2023/08/18 08:47:22;;;;;;;3.42;1.60;;;;;;;24.22;100.00;96397.38;5065217;28;20592;-70
2023/08/18 08:49:58;;;;;;;4.05;2.13;;;;;;;24.51;100.00;96392.47;5057380;28;20197;-70
2023/08/18 08:52:27;;;;;;;2.45;1.73;;;;;;;24.63;100.00;96402.81;5062448;28;20208;-70
2023/08/18 08:54:59;;;;;;;3.75;2.13;;;;;;;24.76;100.00;96404.25;5057052;28;21169;-71
2023/08/18 08:57:26;;;;;;;3.88;2.35;;;;;;;24.60;100.00;96402.50;5060488;28;20654;-71
2023/08/18 08:59:52;;;;;;;2.90;1.95;;;;;;;24.70;100.00;96406.06;5059838;28;20211;-70
2023/08/18 09:02:19;;;;;;;4.57;2.67;;;;;;;24.51;100.00;96403.25;5057390;28;20207;-70
2023/08/18 09:04:45;;;;;;;5.20;2.50;;;;;;;24.38;100.00;96409.91;5056474;28;20576;-70
2023/08/18 09:07:14;;;;;;;3.20;2.15;;;;;;;25.15;100.00;96400.16;5059767;28;20227;-70
2023/08/18 09:09:40;;;;;;;3.38;1.63;;;;;;;24.97;100.00;96393.28;5059363;28;20217;-70
2023/08/18 09:12:08;;;;;;;4.07;2.00;;;;;;;25.25;100.00;96390.19;5059524;28;20312;-70
2023/08/18 09:14:36;;;;;;;3.65;2.15;;;;;;;25.50;100.00;96385.69;5054165;28;20549;-70
2023/08/18 09:17:03;;;;;;;3.88;1.90;;;;;;;25.59;100.00;96391.41;5062448;28;20213;-69
2023/08/18 09:19:30;;;;;;;3.92;1.95;;;;;;;25.62;100.00;96382.75;5060297;28;20201;-70
2023/08/18 09:21:57;;;;;;;3.53;2.00;;;;;;;25.58;100.00;96385.16;5061217;28;20729;-70
2023/08/18 09:24:25;;;;;;;3.28;1.63;;;;;;;25.80;100.00;96385.00;5060577;28;20212;-70
2023/08/18 09:26:51;;;;;;;3.20;1.80;;;;;;;25.72;100.00;96390.91;5057411;28;20240;-70
2023/08/18 09:29:18;;;;;;;4.70;1.70;;;;;;;25.85;100.00;96386.63;5060883;28;20204;-70
2023/08/18 09:31:46;;;;;;;3.95;1.98;;;;;;;26.06;100.00;96393.66;5061381;28;20194;-70
2023/08/18 09:34:19;;;;;;;3.15;1.98;;;;;;;26.05;100.00;96389.31;5059503;28;20209;-70
2023/08/18 09:36:51;;;;;;;2.90;1.38;;;;;;;26.32;100.00;96397.19;5056927;28;20220;-70
2023/08/18 09:39:18;;;;;;;3.85;1.60;;;;;;;26.44;100.00;96396.66;5060551;28;20589;-70
2023/08/18 09:41:47;;;;;;;2.33;1.55;;;;;;;26.55;100.00;96386.63;5057688;28;20220;-70
2023/08/18 09:44:14;;;;;;;5.05;1.58;;;;;;;26.34;100.00;96389.66;5056460;28;20208;-70
2023/08/18 09:46:42;;;;;;;7.55;1.90;;;;;;;26.51;100.00;96390.97;5057602;28;20232;-70
2023/08/18 09:49:10;;;;;;;4.50;1.50;;;;;;;26.74;100.00;96382.28;5059809;28;20234;-70
2023/08/18 09:51:38;;;;;;;5.25;1.70;;;;;;;26.85;100.00;96387.41;5061849;28;20205;-70
2023/08/18 09:54:10;;;;;;;3.85;1.08;;;;;;;27.00;100.00;96379.28;5058778;28;20667;-70
2023/08/18 09:56:40;;;;;;;3.28;1.20;;;;;;;26.99;99.70;96374.94;5058166;28;20220;-70
2023/08/18 09:59:17;;;;;;;1.77;1.25;;;;;;;27.15;97.88;96377.31;5061120;28;20202;-70
2023/08/18 10:01:47;;;;;;;2.67;1.55;;;;;;;27.24;93.09;96375.66;5056866;28;20605;-70
2023/08/18 10:04:13;;;;;;;2.65;1.27;;;;;;;27.48;90.96;96370.41;5060653;28;20197;-70
2023/08/18 10:06:42;;;;;;;2.72;1.27;;;;;;;27.30;89.94;96369.16;5057629;28;20240;-70
2023/08/18 10:09:10;;;;;;;1.85;1.02;;;;;;;27.55;89.96;96366.28;5059536;28;20193;-70
2023/08/18 10:11:37;;;;;;;1.05;0.80;;;;;;;27.99;86.55;96367.13;5058210;28;20223;-70
2023/08/18 10:14:05;;;;;;;2.67;1.40;;;;;;;28.10;91.25;96369.47;5058778;28;20195;-70
2023/08/18 10:16:34;;;;;;;1.02;0.80;;;;;;;27.98;85.71;96370.94;5059060;28;20290;-70
2023/08/18 10:19:01;;;;;;;2.47;1.23;;;;;;;28.18;85.03;96371.59;5058279;28;20201;-70
2023/08/18 10:21:28;;;;;;;2.97;1.10;;;;;;;28.33;88.76;96367.97;5058637;28;20216;-70
2023/08/18 10:23:54;;;;;;;0.90;0.70;;;;;;;28.08;87.08;96366.25;5057462;28;20202;-70
2023/08/18 10:26:23;;;;;;;1.58;1.23;;;;;;;28.23;85.30;96360.72;5056629;28;20204;-70
2023/08/18 10:28:50;;;;;;;3.28;1.02;;;;;;;28.32;83.32;96366.34;5060595;28;20684;-70
2023/08/18 10:31:16;;;;;;;1.38;1.23;;;;;;;28.07;84.63;96358.41;5060447;28;20677;-70
2023/08/18 10:33:48;;;;;;;1.73;0.93;;;;;;;28.42;80.08;96356.22;5058468;28;20208;-70
2023/08/18 10:36:22;;;;;;;1.10;0.88;;;;;;;28.92;87.01;96353.84;5059752;28;20271;-70
2023/08/18 10:38:51;;;;;;;3.20;1.10;;;;;;;28.76;81.73;96355.09;5057690;28;20201;-70
2023/08/18 10:41:24;;;;;;;1.75;1.08;;;;;;;29.01;79.06;96349.41;5060144;28;20244;-70
2023/08/18 10:43:56;;;;;;;1.67;0.90;;;;;;;29.07;82.89;96349.06;5057400;28;20197;-70
2023/08/18 10:46:25;;;;;;;1.60;1.00;;;;;;;29.07;80.34;96351.75;5056680;28;20247;-70
2023/08/18 10:48:53;;;;;;;2.33;1.00;;;;;;;29.10;81.09;96347.66;5057218;28;20209;-70
2023/08/18 10:51:20;;;;;;;2.10;0.90;;;;;;;29.09;76.31;96356.91;5056078;28;20220;-70
2023/08/18 10:53:50;;;;;;;2.30;0.90;;;;;;;29.25;79.60;96345.56;5057896;28;20554;-70
2023/08/18 10:56:17;;;;;;;1.35;0.80;;;;;;;29.13;78.59;96341.66;5059845;28;20200;-70
2023/08/18 10:58:43;;;;;;;1.80;1.00;;;;;;;29.08;78.38;96349.84;5056673;28;20657;-70
2023/08/18 11:01:10;;;;;;;2.67;0.95;;;;;;;29.45;75.59;96344.50;5059124;28;20601;-70
2023/08/18 11:03:38;;;;;;;1.40;0.90;;;;;;;29.58;78.17;96343.78;5061990;28;20213;-70
2023/08/18 11:06:06;;;;;;;2.20;1.00;;;;;;;29.94;79.64;96343.00;5058949;28;20204;-70
2023/08/18 11:08:33;;;;;;;2.85;1.20;;;;;;;29.26;73.69;96335.50;5063002;28;20215;-70
2023/08/18 11:10:59;;;;;;;4.75;1.23;;;;;;;29.18;75.14;96328.00;5054801;28;20204;-69
2023/08/18 11:13:28;;;;;;;3.22;1.15;;;;;;;29.29;75.85;96330.31;5060517;28;20209;-69
2023/08/18 11:15:56;;;;;;;7.05;0.98;;;;;;;29.37;75.15;96323.44;5057496;28;20193;-69
2023/08/18 11:18:24;;;;;;;2.38;0.75;;;;;;;29.41;84.52;96327.19;5059461;28;20221;-71
2023/08/18 11:20:52;;;;;;;1.95;1.13;;;;;;;29.46;77.94;96324.41;5058107;28;20220;-71
2023/08/18 11:23:20;;;;;;;4.78;1.15;;;;;;;29.67;76.23;96321.91;5060551;28;20205;-70
2023/08/18 11:25:47;;;;;;;1.45;0.73;;;;;;;29.75;74.34;96323.97;5058462;28;20573;-70
2023/08/18 11:28:14;;;;;;;1.50;1.02;;;;;;;29.77;75.46;96316.34;5059741;28;20221;-70